Time;durP1;ratioP1;P1;durP2;ratioP2;P2;SDS_P1;SDS_P2;PMS_P1;PMS_P2;Temp;Humidity;BMP_temperature;BMP_pressure;BME280_temperature;BME280_humidity;BME280_pressure;Samples;Min_cycle;Max_cycle;Signal;HPM_P1;HPM_P2
2022/12/31 00:02:11;;;;;;;32.50;21.23;;;;;;;3.89;85.67;98051.63;4892492;29;20676;-70
2022/12/31 00:04:39;;;;;;;35.87;23.00;;;;;;;3.90;85.21;98049.91;4891191;29;20286;-71
2022/12/31 00:07:06;;;;;;;36.80;23.63;;;;;;;4.02;84.76;98053.28;4892403;29;20202;-71
2022/12/31 00:09:33;;;;;;;38.07;22.77;;;;;;;4.00;83.98;98062.69;4891083;29;20621;-71
2022/12/31 00:12:00;;;;;;;31.97;20.27;;;;;;;4.05;84.18;98054.97;4875347;29;20222;-71
2022/12/31 00:14:27;;;;;;;37.63;22.07;;;;;;;3.89;84.02;98059.31;4891352;29;20893;-71
2022/12/31 00:16:54;;;;;;;35.53;21.10;;;;;;;3.87;83.70;98062.72;4891778;29;20205;-71
2022/12/31 00:19:20;;;;;;;37.53;21.87;;;;;;;3.86;84.01;98063.56;4891841;29;20292;-70
2022/12/31 00:21:47;;;;;;;31.70;19.10;;;;;;;3.82;83.94;98067.00;4891215;29;20198;-71
2022/12/31 00:24:14;;;;;;;27.50;17.73;;;;;;;3.82;83.86;98067.00;4892232;29;20711;-71
2022/12/31 00:26:41;;;;;;;27.33;18.97;;;;;;;3.94;83.56;98087.47;4890992;29;20248;-71
2022/12/31 00:29:09;;;;;;;27.70;17.97;;;;;;;3.82;83.14;98074.69;4892146;29;20207;-70
2022/12/31 00:31:37;;;;;;;29.80;18.37;;;;;;;3.70;83.87;98072.16;4891198;29;20718;-72
2022/12/31 00:34:04;;;;;;;27.30;18.00;;;;;;;3.60;84.07;98075.59;4891849;29;20647;-70
2022/12/31 00:36:34;;;;;;;27.80;17.80;;;;;;;3.32;85.21;98058.59;4891866;29;20221;-71
2022/12/31 00:39:03;;;;;;;30.07;18.33;;;;;;;3.38;86.26;98077.31;4893392;29;20235;-72
2022/12/31 00:41:31;;;;;;;32.53;20.13;;;;;;;3.39;87.74;98073.06;4895897;29;20218;-70
2022/12/31 00:43:58;;;;;;;34.40;20.67;;;;;;;3.55;88.01;98078.16;4894447;29;20195;-72
2022/12/31 00:46:26;;;;;;;32.30;19.97;;;;;;;3.71;87.03;98079.84;4895777;29;20286;-72
2022/12/31 00:48:53;;;;;;;29.83;19.20;;;;;;;3.73;85.70;98067.88;4894842;29;20199;-70
2022/12/31 00:51:22;;;;;;;32.80;20.23;;;;;;;3.89;85.44;98087.50;4895199;29;20581;-70
2022/12/31 00:53:49;;;;;;;38.10;21.57;;;;;;;4.08;84.37;98091.69;4895366;29;20200;-70
2022/12/31 00:56:20;;;;;;;33.83;19.43;;;;;;;4.08;84.08;98081.44;4894750;29;20334;-71
2022/12/31 00:58:47;;;;;;;28.03;17.47;;;;;;;4.07;84.24;98074.63;4895657;29;20227;-70
2022/12/31 01:01:20;;;;;;;34.70;19.00;;;;;;;4.18;83.46;98089.97;4894199;29;20230;-71
2022/12/31 01:03:49;;;;;;;30.37;18.83;;;;;;;4.08;84.04;98075.47;4895316;29;20763;-70
2022/12/31 01:06:17;;;;;;;32.33;19.80;;;;;;;4.18;83.58;98082.28;4894353;29;20581;-70
2022/12/31 01:08:47;;;;;;;31.40;19.03;;;;;;;4.23;84.00;98080.53;4895477;29;20196;-70
2022/12/31 01:11:27;;;;;;;30.73;19.37;;;;;;;4.20;83.82;98072.88;4896935;29;20558;-72
2022/12/31 01:14:00;;;;;;;28.70;19.67;;;;;;;4.35;83.64;98070.22;4896147;29;20230;-72
2022/12/31 01:16:27;;;;;;;30.57;18.73;;;;;;;4.27;82.92;98071.09;4895426;29;20295;-72
2022/12/31 01:18:56;;;;;;;31.20;19.00;;;;;;;4.16;82.66;98073.75;4876849;29;20788;-73
2022/12/31 01:21:23;;;;;;;32.30;19.47;;;;;;;4.08;82.97;98067.78;4895193;29;20200;-73
2022/12/31 01:23:50;;;;;;;31.90;20.10;;;;;;;4.09;83.10;98065.22;4894319;29;20220;-72
2022/12/31 01:26:18;;;;;;;26.23;16.80;;;;;;;4.05;84.14;98065.22;4877667;29;20670;-73
2022/12/31 01:28:46;;;;;;;28.30;17.27;;;;;;;4.08;84.37;98066.06;4894890;29;20200;-73
2022/12/31 01:31:15;;;;;;;27.47;16.83;;;;;;;4.17;84.22;98067.72;4893790;29;20202;-71
2022/12/31 01:33:42;;;;;;;29.50;17.73;;;;;;;4.19;83.67;98060.88;4894933;29;20200;-72
2022/12/31 01:36:13;;;;;;;26.33;17.30;;;;;;;3.99;83.51;98057.56;4893570;29;20189;-71
2022/12/31 01:38:40;;;;;;;26.73;15.23;;;;;;;4.04;84.25;98053.25;4894619;29;20204;-72
2022/12/31 01:41:16;;;;;;;24.43;15.57;;;;;;;4.07;83.41;98059.25;4893868;29;20196;-72
2022/12/31 01:43:58;;;;;;;23.93;15.13;;;;;;;3.96;83.91;98035.34;4893996;29;20287;-72
2022/12/31 01:46:28;;;;;;;25.60;14.13;;;;;;;4.10;84.19;98048.13;4894794;29;20774;-72
2022/12/31 01:48:58;;;;;;;21.50;13.83;;;;;;;3.92;84.36;98014.88;4893324;29;20203;-71
2022/12/31 01:51:29;;;;;;;23.73;14.20;;;;;;;4.17;83.93;98054.91;4894209;29;20279;-73
2022/12/31 01:53:59;;;;;;;20.67;13.10;;;;;;;4.00;85.83;98061.81;4893621;29;20667;-71
2022/12/31 01:56:26;;;;;;;21.03;13.53;;;;;;;3.97;86.25;98062.69;4894341;29;21002;-72
2022/12/31 01:58:56;;;;;;;19.43;11.10;;;;;;;3.96;86.15;98058.41;4894059;29;20183;-73
2022/12/31 02:01:29;;;;;;;18.63;12.57;;;;;;;3.96;86.52;98055.84;4892221;29;20198;-71
2022/12/31 02:03:56;;;;;;;20.23;14.10;;;;;;;3.97;86.38;98049.88;4893129;29;20192;-73
2022/12/31 02:06:31;;;;;;;19.43;12.97;;;;;;;3.97;86.72;98064.41;4893002;29;20197;-72
2022/12/31 02:08:58;;;;;;;20.37;14.23;;;;;;;3.90;86.48;98067.84;4894245;29;20214;-72
2022/12/31 02:11:29;;;;;;;22.97;14.10;;;;;;;3.90;86.48;98062.72;4893270;29;20192;-71
2022/12/31 02:14:01;;;;;;;22.47;13.87;;;;;;;3.89;86.39;98063.59;4893716;29;20237;-72
2022/12/31 02:16:41;;;;;;;26.33;15.67;;;;;;;3.72;87.48;98057.66;4894269;29;20197;-71
2022/12/31 02:19:44;;;;;;;20.27;14.07;;;;;;;3.59;87.42;98058.53;4875886;29;20219;-71
2022/12/31 02:22:17;;;;;;;20.33;14.30;;;;;;;3.55;88.23;98059.38;4893794;29;20207;-71
2022/12/31 02:25:07;;;;;;;22.17;13.77;;;;;;;3.61;88.66;98062.78;4892569;29;20187;-72
2022/12/31 02:28:05;;;;;;;23.70;14.60;;;;;;;3.73;88.73;98062.75;4876190;29;20202;-71
2022/12/31 02:30:33;;;;;;;25.37;13.33;;;;;;;3.78;88.14;98052.50;4893847;29;20206;-71
2022/12/31 02:33:26;;;;;;;25.10;15.00;;;;;;;4.03;88.30;98070.38;4876245;29;20598;-71
2022/12/31 02:35:57;;;;;;;23.47;14.60;;;;;;;4.11;87.86;98078.00;4892953;29;20605;-71
2022/12/31 02:38:34;;;;;;;21.93;13.73;;;;;;;4.20;87.99;98069.44;4893833;29;20616;-72
2022/12/31 02:41:01;;;;;;;21.03;12.53;;;;;;;4.29;87.90;98059.97;4892452;29;21564;-71
2022/12/31 02:43:28;;;;;;;20.10;12.30;;;;;;;4.55;87.20;98063.28;4893550;29;20294;-71
2022/12/31 02:46:13;;;;;;;21.33;12.23;;;;;;;4.60;86.71;98069.22;4892855;29;20196;-70
2022/12/31 02:49:13;;;;;;;19.67;12.27;;;;;;;4.79;85.31;98067.41;4893001;29;20248;-71
2022/12/31 02:51:48;;;;;;;21.77;14.10;;;;;;;4.85;85.56;98063.06;4893546;29;20873;-71
2022/12/31 02:54:51;;;;;;;20.43;13.13;;;;;;;4.98;84.86;98068.97;4892246;29;20690;-70
2022/12/31 02:58:08;;;;;;;22.30;14.17;;;;;;;5.13;84.99;98073.16;4880924;29;20676;-71
2022/12/31 03:03:30;;;;;;;22.83;15.07;;;;;;;5.23;83.54;98065.34;4891757;29;20204;-70
2022/12/31 03:06:01;;;;;;;22.27;13.70;;;;;;;5.27;83.81;98071.31;4892629;29;20245;-71
2022/12/31 03:08:29;;;;;;;25.80;15.70;;;;;;;5.30;83.25;98077.25;4893100;29;20290;-71
2022/12/31 03:10:56;;;;;;;25.67;14.93;;;;;;;5.27;83.30;98082.44;4892075;29;20661;-70
2022/12/31 03:13:23;;;;;;;19.67;12.70;;;;;;;5.23;82.75;98083.34;4893071;29;20653;-72
2022/12/31 03:15:50;;;;;;;22.27;14.10;;;;;;;5.25;83.18;98089.31;4891995;29;20193;-71
2022/12/31 03:22:26;;;;;;;20.93;13.13;;;;;;;5.10;83.70;98091.13;4893105;29;20193;-71
2022/12/31 03:26:42;;;;;;;30.40;17.00;;;;;;;4.65;84.49;98084.59;4893275;29;20198;-73
2022/12/31 03:29:09;;;;;;;24.80;16.37;;;;;;;4.44;85.28;98093.25;4891817;29;20228;-73
2022/12/31 03:31:36;;;;;;;22.80;15.27;;;;;;;4.39;85.26;98083.88;4892628;29;20192;-71
2022/12/31 03:34:03;;;;;;;26.27;15.47;;;;;;;4.31;85.52;98088.19;4892456;29;20192;-72
2022/12/31 03:36:30;;;;;;;31.13;17.70;;;;;;;4.33;86.02;98082.19;4891814;29;20192;-70
2022/12/31 03:38:57;;;;;;;25.37;16.10;;;;;;;4.25;86.47;98073.69;4892666;29;20281;-71
2022/12/31 03:41:24;;;;;;;24.40;15.50;;;;;;;4.31;86.16;98083.06;4891318;29;20227;-71
2022/12/31 03:43:50;;;;;;;23.50;14.73;;;;;;;4.33;86.37;98086.47;4892577;29;20629;-71
2022/12/31 03:46:17;;;;;;;23.93;13.97;;;;;;;4.33;86.07;98095.00;4891437;29;20695;-71
2022/12/31 03:48:44;;;;;;;24.87;14.50;;;;;;;4.26;86.69;98101.03;4892662;29;20205;-71
2022/12/31 03:51:12;;;;;;;24.33;14.17;;;;;;;4.24;86.69;98110.44;4892064;29;20678;-71
2022/12/31 03:53:39;;;;;;;23.20;14.07;;;;;;;4.24;86.92;98107.88;4891762;29;20283;-71
2022/12/31 03:56:06;;;;;;;22.63;13.67;;;;;;;4.25;86.88;98094.19;4892955;29;20227;-71
2022/12/31 03:58:33;;;;;;;20.70;12.60;;;;;;;4.32;86.36;98101.00;4882545;29;20294;-71
2022/12/31 04:01:00;;;;;;;20.20;13.80;;;;;;;4.34;86.57;98089.03;4892586;29;20230;-73
2022/12/31 04:03:27;;;;;;;25.57;13.90;;;;;;;4.34;86.43;98094.16;4891624;29;20250;-72
2022/12/31 04:05:54;;;;;;;19.83;13.37;;;;;;;4.34;86.82;98083.91;4892288;29;21138;-71
2022/12/31 04:08:22;;;;;;;19.37;12.47;;;;;;;4.46;86.64;98099.22;4891501;29;21501;-72
2022/12/31 04:10:49;;;;;;;17.10;10.80;;;;;;;4.44;86.22;98084.69;4891759;29;20189;-72
2022/12/31 04:13:16;;;;;;;15.77;11.70;;;;;;;4.61;85.78;98101.72;4892085;29;20326;-71
2022/12/31 04:15:43;;;;;;;16.87;10.33;;;;;;;4.65;86.29;98099.97;4895175;29;20192;-73
2022/12/31 04:18:10;;;;;;;18.93;12.23;;;;;;;4.65;86.03;98094.84;4896126;29;20193;-72
2022/12/31 04:20:37;;;;;;;22.57;12.43;;;;;;;4.65;85.39;98107.69;4894929;29;20244;-71
2022/12/31 04:23:04;;;;;;;18.93;11.37;;;;;;;4.59;85.54;98108.56;4896223;29;20244;-73
2022/12/31 04:25:31;;;;;;;19.27;11.33;;;;;;;4.65;85.99;98111.09;4894984;29;20200;-72
2022/12/31 04:27:58;;;;;;;19.17;11.37;;;;;;;4.73;85.86;98103.34;4895542;29;20312;-70
2022/12/31 04:30:24;;;;;;;21.80;11.73;;;;;;;4.75;85.27;98096.50;4895886;29;20223;-74
2022/12/31 04:32:51;;;;;;;19.07;11.03;;;;;;;4.74;85.45;98108.47;4895087;29;20215;-75
2022/12/31 04:35:19;;;;;;;25.60;15.67;;;;;;;4.78;84.59;98112.72;4887704;29;20204;-74
2022/12/31 04:37:46;;;;;;;19.63;14.07;;;;;;;4.82;84.76;98109.28;4894614;29;20252;-72
2022/12/31 04:40:13;;;;;;;25.07;14.90;;;;;;;4.86;84.66;98105.00;4895998;29;20225;-72
2022/12/31 04:42:40;;;;;;;19.73;13.73;;;;;;;4.82;84.06;98118.72;4894752;29;20198;-74
2022/12/31 04:45:09;;;;;;;25.33;15.60;;;;;;;4.75;84.54;98110.19;4895572;29;20226;-71
2022/12/31 04:47:36;;;;;;;23.10;13.97;;;;;;;4.76;84.37;98099.03;4894942;29;20215;-71
2022/12/31 04:50:04;;;;;;;24.87;14.47;;;;;;;4.70;84.10;98118.75;4894681;29;20220;-72
2022/12/31 04:52:31;;;;;;;24.63;14.60;;;;;;;4.71;84.96;98116.19;4894659;29;20236;-70
2022/12/31 04:55:03;;;;;;;27.20;15.40;;;;;;;4.61;84.73;98109.41;4876657;29;20214;-71
2022/12/31 04:57:29;;;;;;;26.50;17.83;;;;;;;4.65;84.80;98118.78;4895526;29;20198;-71
2022/12/31 04:59:56;;;;;;;24.70;15.90;;;;;;;4.52;84.40;98118.84;4894153;29;20227;-73
2022/12/31 05:02:23;;;;;;;25.80;15.70;;;;;;;4.64;84.64;98122.22;4878516;29;20197;-74
2022/12/31 05:04:50;;;;;;;26.77;16.07;;;;;;;4.62;83.80;98130.75;4894751;29;20212;-72
2022/12/31 05:07:17;;;;;;;27.90;15.67;;;;;;;4.53;83.50;98125.69;4894053;29;20284;-71
2022/12/31 05:09:44;;;;;;;27.07;16.40;;;;;;;4.33;84.27;98117.25;4892113;29;20201;-73
2022/12/31 05:12:11;;;;;;;24.33;16.50;;;;;;;4.38;84.43;98120.63;4893401;29;20205;-72
2022/12/31 05:14:38;;;;;;;28.63;16.60;;;;;;;4.43;84.03;98117.16;4894612;29;20230;-72
2022/12/31 05:17:05;;;;;;;27.50;17.70;;;;;;;4.44;83.88;98134.28;4890968;29;20218;-72
2022/12/31 05:19:32;;;;;;;27.23;17.37;;;;;;;4.46;84.20;98135.13;4894522;29;20192;-72
2022/12/31 05:24:44;;;;;;;29.10;18.43;;;;;;;4.27;84.32;98143.75;4892455;29;20192;-71
2022/12/31 05:27:11;;;;;;;37.30;22.47;;;;;;;4.26;84.77;98134.34;4894363;29;20202;-71
2022/12/31 05:29:38;;;;;;;36.40;21.90;;;;;;;4.29;84.24;98153.97;4893205;29;20192;-74
2022/12/31 05:32:05;;;;;;;36.53;21.87;;;;;;;4.09;84.96;98154.06;4877540;29;20202;-71
2022/12/31 05:34:31;;;;;;;33.70;20.13;;;;;;;4.10;86.51;98159.16;4893020;29;20195;-72
2022/12/31 05:36:58;;;;;;;45.80;25.17;;;;;;;4.08;85.96;98150.63;4894320;29;20762;-71
2022/12/31 05:39:25;;;;;;;28.33;17.70;;;;;;;4.18;86.49;98154.03;4893193;29;20192;-71
2022/12/31 05:41:52;;;;;;;31.13;17.77;;;;;;;4.20;86.64;98162.59;4892085;29;20641;-69
2022/12/31 05:44:19;;;;;;;32.20;19.43;;;;;;;4.21;86.86;98156.56;4894055;29;20195;-70
2022/12/31 05:46:46;;;;;;;31.37;17.87;;;;;;;4.20;87.92;98154.88;4893098;29;20223;-73
2022/12/31 05:49:13;;;;;;;30.10;18.03;;;;;;;4.21;87.08;98151.44;4876947;29;20571;-72
2022/12/31 05:51:39;;;;;;;31.47;19.30;;;;;;;4.18;87.21;98143.78;4875851;29;20199;-71
2022/12/31 05:54:06;;;;;;;33.37;18.40;;;;;;;4.33;86.76;98164.22;4893951;29;20295;-73
2022/12/31 05:56:35;;;;;;;30.13;17.70;;;;;;;4.32;86.72;98167.66;4892845;29;20219;-71
2022/12/31 05:59:02;;;;;;;32.37;18.00;;;;;;;4.32;87.05;98177.91;4876986;29;20243;-71
2022/12/31 06:01:29;;;;;;;38.40;19.93;;;;;;;4.29;86.68;98170.22;4893690;29;20228;-70
2022/12/31 06:03:56;;;;;;;46.53;26.33;;;;;;;4.31;86.12;98175.38;4893117;29;20252;-75
2022/12/31 06:06:23;;;;;;;44.63;25.53;;;;;;;4.36;85.66;98179.63;4893700;29;20200;-71
2022/12/31 06:08:51;;;;;;;38.53;22.20;;;;;;;4.33;84.94;98173.66;4881361;29;20550;-75
2022/12/31 06:11:17;;;;;;;29.27;17.17;;;;;;;4.39;85.07;98184.72;4894033;29;20205;-72
2022/12/31 06:13:44;;;;;;;29.57;19.50;;;;;;;4.41;85.83;98185.56;4892760;29;20691;-69
2022/12/31 06:16:11;;;;;;;28.60;18.20;;;;;;;4.29;85.38;98188.16;4894151;29;20587;-73
2022/12/31 06:18:38;;;;;;;38.07;21.70;;;;;;;4.32;84.91;98185.63;4893617;29;20213;-71
2022/12/31 06:21:05;;;;;;;32.70;21.03;;;;;;;4.30;84.55;98189.03;4892897;29;20728;-71
2022/12/31 06:23:32;;;;;;;34.93;20.53;;;;;;;4.12;85.09;98195.06;4893868;29;20228;-71
2022/12/31 06:26:04;;;;;;;29.27;18.13;;;;;;;4.02;85.21;98189.09;4874822;29;20219;-70
2022/12/31 06:28:31;;;;;;;31.03;20.87;;;;;;;4.01;85.15;98189.09;4893697;29;20726;-70
2022/12/31 06:30:59;;;;;;;25.07;15.47;;;;;;;4.03;85.33;98189.94;4875809;29;20204;-73
2022/12/31 06:33:27;;;;;;;26.00;14.10;;;;;;;4.10;84.97;98205.31;4893593;29;20209;-73
2022/12/31 06:35:56;;;;;;;20.13;13.67;;;;;;;4.02;85.36;98209.59;4893550;29;20203;-71
2022/12/31 06:38:24;;;;;;;24.70;14.83;;;;;;;4.04;85.66;98212.13;4892845;29;20197;-71
2022/12/31 06:40:52;;;;;;;20.27;12.97;;;;;;;4.20;86.06;98208.72;4892581;29;20239;-71
2022/12/31 06:43:19;;;;;;;20.60;13.37;;;;;;;4.22;86.40;98201.88;4891891;29;20297;-71
2022/12/31 06:45:46;;;;;;;20.37;13.27;;;;;;;4.38;85.83;98212.94;4893231;29;20567;-71
2022/12/31 06:48:13;;;;;;;23.50;12.97;;;;;;;4.56;85.68;98218.00;4892077;29;20279;-72
2022/12/31 06:50:40;;;;;;;20.43;14.17;;;;;;;4.63;85.45;98217.13;4891827;29;20294;-74
2022/12/31 06:53:07;;;;;;;25.57;16.23;;;;;;;4.84;84.41;98224.75;4891933;29;20196;-70
2022/12/31 06:55:35;;;;;;;30.07;17.07;;;;;;;5.00;84.12;98226.38;4890788;29;20272;-73
2022/12/31 06:58:02;;;;;;;30.00;17.20;;;;;;;5.02;82.89;98219.53;4892333;29;20348;-75
2022/12/31 07:00:29;;;;;;;31.93;19.03;;;;;;;4.95;83.06;98223.84;4888949;29;20225;-75
2022/12/31 07:03:22;;;;;;;32.30;20.77;;;;;;;5.09;82.86;98226.31;4892546;29;20635;-73
2022/12/31 07:06:01;;;;;;;36.10;19.27;;;;;;;5.16;82.65;98227.16;4889187;29;20208;-75
2022/12/31 07:08:31;;;;;;;20.80;13.53;;;;;;;5.17;82.13;98228.88;4889637;29;20294;-74
2022/12/31 07:11:07;;;;;;;23.37;15.13;;;;;;;5.15;82.32;98235.72;4891989;29;20217;-71
2022/12/31 07:13:48;;;;;;;25.90;17.40;;;;;;;5.17;82.27;98226.31;4885207;29;20274;-73
2022/12/31 07:16:30;;;;;;;23.83;14.97;;;;;;;5.30;81.38;98220.22;4872733;29;20255;-75
2022/12/31 07:19:21;;;;;;;27.33;16.03;;;;;;;5.38;81.88;98234.72;4873221;29;20268;-74
2022/12/31 07:22:02;;;;;;;32.13;18.63;;;;;;;5.46;81.32;98230.38;4872765;29;20337;-72
2022/12/31 07:24:29;;;;;;;35.23;19.97;;;;;;;5.62;80.83;98238.84;4873737;29;20219;-75
2022/12/31 07:26:56;;;;;;;34.17;21.07;;;;;;;5.91;81.29;98246.38;4871414;29;20194;-72
2022/12/31 07:29:49;;;;;;;33.63;19.70;;;;;;;5.91;80.44;98242.09;4873850;29;20199;-72
2022/12/31 07:32:37;;;;;;;36.17;20.07;;;;;;;5.89;80.14;98242.97;4872670;29;20285;-72
2022/12/31 07:35:30;;;;;;;32.87;20.37;;;;;;;6.04;80.30;98247.97;4870912;29;20197;-73
2022/12/31 07:38:38;;;;;;;33.57;20.90;;;;;;;6.17;79.33;98247.00;4870410;29;20294;-72
2022/12/31 07:41:26;;;;;;;31.47;18.97;;;;;;;6.31;79.89;98243.41;4866768;29;20222;-74
2022/12/31 07:44:26;;;;;;;22.17;15.00;;;;;;;6.37;79.68;98248.50;4872429;29;20209;-74
2022/12/31 07:46:59;;;;;;;21.67;14.60;;;;;;;6.47;80.31;98250.13;4873412;29;20271;-71
2022/12/31 07:49:28;;;;;;;32.40;19.43;;;;;;;6.41;81.07;98247.59;4872010;29;20221;-73
2022/12/31 07:51:55;;;;;;;23.13;15.57;;;;;;;6.39;79.49;98233.91;4872979;29;20670;-73
2022/12/31 07:54:22;;;;;;;20.70;13.83;;;;;;;6.63;79.11;98249.97;4872951;29;20549;-74
2022/12/31 07:56:50;;;;;;;20.57;13.87;;;;;;;6.75;79.01;98260.13;4872331;29;20302;-73
2022/12/31 07:59:20;;;;;;;20.40;14.80;;;;;;;6.76;80.64;98257.53;4873192;29;20207;-73
2022/12/31 08:02:07;;;;;;;28.60;17.73;;;;;;;6.83;79.52;98255.72;4871935;29;20237;-72
2022/12/31 08:04:52;;;;;;;30.53;17.73;;;;;;;7.05;79.30;98264.91;4887390;29;20188;-73
2022/12/31 08:07:34;;;;;;;23.37;13.83;;;;;;;7.13;79.16;98258.78;4872711;29;20252;-74
2022/12/31 08:10:07;;;;;;;20.20;14.03;;;;;;;7.14;79.75;98252.78;4872209;29;20319;-72
2022/12/31 08:12:44;;;;;;;25.13;17.67;;;;;;;7.43;82.37;98261.84;4875689;29;20192;-74
2022/12/31 08:15:16;;;;;;;26.93;16.37;;;;;;;7.45;78.92;98265.25;4890608;29;20286;-72
2022/12/31 08:17:44;;;;;;;34.07;17.30;;;;;;;7.41;78.25;98259.28;4874577;29;20730;-73
2022/12/31 08:20:16;;;;;;;28.43;19.77;;;;;;;7.54;78.72;98267.69;4874573;29;20250;-72
2022/12/31 08:23:16;;;;;;;24.00;15.20;;;;;;;7.65;77.91;98253.78;4890321;29;20271;-73
2022/12/31 08:26:22;;;;;;;24.67;15.37;;;;;;;7.73;77.41;98248.53;4874372;29;20689;-72
2022/12/31 08:29:03;;;;;;;26.77;17.40;;;;;;;7.81;78.02;98257.81;4873803;29;20199;-72
2022/12/31 08:31:43;;;;;;;28.57;15.33;;;;;;;7.86;77.88;98256.03;4889057;29;20254;-71
2022/12/31 08:34:29;;;;;;;21.33;13.47;;;;;;;8.03;77.50;98256.63;4871014;29;20703;-71
2022/12/31 08:36:56;;;;;;;23.23;13.77;;;;;;;8.22;76.22;98255.41;4889598;29;20656;-72
2022/12/31 08:39:38;;;;;;;23.87;15.10;;;;;;;8.35;76.50;98256.09;4882429;29;20200;-72
2022/12/31 08:42:21;;;;;;;23.90;14.57;;;;;;;8.39;76.36;98254.34;4879887;29;20287;-72
2022/12/31 08:45:07;;;;;;;24.10;14.50;;;;;;;8.70;75.00;98260.59;4872033;29;20225;-71
2022/12/31 08:48:12;;;;;;;21.23;14.70;;;;;;;8.86;75.46;98267.22;4889755;29;20202;-69
2022/12/31 08:50:39;;;;;;;24.97;14.90;;;;;;;9.06;74.52;98259.06;4891037;29;20199;-72
2022/12/31 08:53:09;;;;;;;17.50;11.97;;;;;;;9.13;73.06;98255.47;4890016;29;20714;-72
2022/12/31 08:55:36;;;;;;;17.77;12.60;;;;;;;8.91;72.87;98214.56;4889803;29;20210;-72
2022/12/31 08:58:35;;;;;;;21.00;12.53;;;;;;;9.27;72.04;98248.28;4890126;29;20208;-73
2022/12/31 09:01:04;;;;;;;16.90;11.17;;;;;;;9.30;72.05;98236.13;4894322;29;20223;-75
2022/12/31 09:03:53;;;;;;;23.27;15.47;;;;;;;9.53;71.45;98246.81;4893839;29;20191;-74
2022/12/31 09:06:54;;;;;;;22.63;14.57;;;;;;;9.58;70.92;98224.28;4889094;29;20201;-71
2022/12/31 09:09:52;;;;;;;23.23;12.17;;;;;;;9.87;70.62;98243.47;4879864;29;20250;-72
2022/12/31 09:12:37;;;;;;;19.33;13.30;;;;;;;9.90;69.56;98246.81;4884583;29;20294;-72
2022/12/31 09:15:29;;;;;;;16.13;11.57;;;;;;;10.09;68.95;98244.63;4892787;29;20207;-74
2022/12/31 09:17:56;;;;;;;18.03;11.13;;;;;;;10.14;68.11;98229.91;4891996;29;20230;-72
2022/12/31 09:20:26;;;;;;;17.10;11.67;;;;;;;10.32;67.91;98244.97;4874517;29;20201;-72
2022/12/31 09:23:09;;;;;;;15.80;10.50;;;;;;;10.38;67.19;98240.47;4887648;29;20212;-75
2022/12/31 09:26:50;;;;;;;17.47;11.10;;;;;;;10.64;66.42;98237.19;4841460;29;20242;-74
2022/12/31 09:29:44;;;;;;;13.17;10.07;;;;;;;10.71;65.05;98230.97;4890523;29;20204;-73
2022/12/31 09:32:21;;;;;;;16.20;11.97;;;;;;;10.67;64.73;98220.72;4893003;29;20207;-72
2022/12/31 09:35:06;;;;;;;28.90;15.93;;;;;;;10.83;64.17;98227.16;4892252;29;20284;-74
2022/12/31 09:37:47;;;;;;;21.53;12.77;;;;;;;10.90;64.06;98219.16;4875606;29;20224;-72
2022/12/31 09:40:41;;;;;;;15.03;11.13;;;;;;;11.03;63.57;98212.75;4891523;29;20190;-72
2022/12/31 09:43:35;;;;;;;14.03;9.97;;;;;;;11.03;63.63;98210.16;4891077;29;20202;-72
2022/12/31 09:46:32;;;;;;;15.80;9.50;;;;;;;11.12;63.13;98209.91;4891928;29;20687;-72
2022/12/31 09:49:33;;;;;;;18.37;12.70;;;;;;;11.28;62.34;98211.16;4859293;29;20629;-73
2022/12/31 09:52:10;;;;;;;11.30;8.67;;;;;;;11.17;62.40;98200.25;4891137;29;20271;-71
2022/12/31 09:54:52;;;;;;;12.87;8.27;;;;;;;11.39;61.83;98203.91;4889179;29;20272;-73
2022/12/31 09:57:28;;;;;;;13.23;9.23;;;;;;;11.49;61.24;98188.91;4889257;29;20228;-73
2022/12/31 10:00:14;;;;;;;14.50;10.63;;;;;;;11.59;60.31;98192.91;4891464;29;20194;-73
2022/12/31 10:03:02;;;;;;;12.10;8.40;;;;;;;11.76;59.94;98195.84;4875030;29;20740;-74
2022/12/31 10:05:52;;;;;;;12.90;8.27;;;;;;;11.77;59.59;98174.19;4890726;29;20227;-72
2022/12/31 10:08:37;;;;;;;14.87;9.40;;;;;;;11.80;59.75;98178.44;4875698;29;20293;-72
2022/12/31 10:11:25;;;;;;;10.30;7.33;;;;;;;11.92;59.14;98191.00;4892578;29;20197;-72
2022/12/31 10:14:20;;;;;;;11.97;7.73;;;;;;;12.02;58.08;98171.63;4874495;29;20296;-73
2022/12/31 10:16:59;;;;;;;16.33;9.13;;;;;;;12.18;57.61;98175.41;4892761;29;20581;-73
2022/12/31 10:19:59;;;;;;;11.27;7.00;;;;;;;12.30;55.89;98179.34;4892763;29;20209;-73
2022/12/31 10:22:51;;;;;;;11.77;7.83;;;;;;;12.33;57.03;98180.06;4891543;29;20232;-73
2022/12/31 10:25:36;;;;;;;11.40;7.30;;;;;;;12.37;56.71;98171.28;4873750;29;20682;-72
2022/12/31 10:28:28;;;;;;;9.80;7.03;;;;;;;12.42;56.44;98166.78;4873933;29;20685;-71
2022/12/31 10:31:03;;;;;;;11.00;8.13;;;;;;;12.44;56.76;98156.31;4871467;29;20201;-73
2022/12/31 10:33:42;;;;;;;12.50;9.00;;;;;;;12.40;56.77;98144.34;4873773;29;20199;-72
2022/12/31 10:36:43;;;;;;;13.57;8.50;;;;;;;12.45;56.30;98143.28;4873201;29;20193;-72
2022/12/31 10:39:47;;;;;;;14.47;8.70;;;;;;;12.71;55.69;98156.19;4873247;29;20195;-72
2022/12/31 10:42:36;;;;;;;10.20;7.10;;;;;;;12.72;55.89;98152.69;4872343;29;20629;-72
2022/12/31 10:45:21;;;;;;;11.83;8.17;;;;;;;12.62;55.89;98151.31;4856377;29;20203;-72
2022/12/31 10:48:45;;;;;;;10.63;7.93;;;;;;;12.66;55.29;98152.06;4873595;29;20197;-74
2022/12/31 10:51:41;;;;;;;10.97;7.67;;;;;;;12.85;54.42;98146.16;4798090;29;20220;-71
2022/12/31 10:54:26;;;;;;;13.23;8.17;;;;;;;12.97;54.86;98156.09;4774808;29;20218;-72
2022/12/31 10:57:09;;;;;;;13.57;8.30;;;;;;;13.00;54.37;98142.94;4858311;29;20318;-72
2022/12/31 11:00:13;;;;;;;15.17;8.87;;;;;;;13.11;54.14;98144.34;4856790;29;20211;-71
2022/12/31 11:03:30;;;;;;;19.13;8.87;;;;;;;13.18;54.26;98135.38;4872862;29;20226;-75
2022/12/31 11:06:15;;;;;;;11.17;7.70;;;;;;;13.21;53.83;98136.13;4872837;29;20203;-74
2022/12/31 11:09:04;;;;;;;9.67;6.67;;;;;;;13.29;53.52;98125.44;4873532;29;20204;-73
2022/12/31 11:11:57;;;;;;;11.93;6.77;;;;;;;13.42;54.44;98130.06;4856144;29;20214;-73
2022/12/31 11:14:27;;;;;;;10.70;8.60;;;;;;;13.48;53.67;98114.22;4872971;29;20267;-73
2022/12/31 11:16:57;;;;;;;11.33;6.63;;;;;;;13.40;52.90;98121.50;4873247;29;20200;-75
2022/12/31 11:19:39;;;;;;;8.93;7.30;;;;;;;13.50;53.25;98121.97;4872890;29;20202;-75
2022/12/31 11:22:24;;;;;;;10.03;6.23;;;;;;;13.53;52.52;98109.69;4872437;29;20310;-74
2022/12/31 11:25:03;;;;;;;9.20;6.93;;;;;;;13.62;51.66;98113.69;4872587;29;20266;-75
2022/12/31 11:27:33;;;;;;;17.33;7.30;;;;;;;13.77;51.94;98113.03;4872493;29;20197;-75
2022/12/31 11:30:10;;;;;;;10.20;7.60;;;;;;;13.63;52.40;98105.81;4873002;29;20286;-74
2022/12/31 11:32:43;;;;;;;7.43;5.27;;;;;;;13.81;51.95;98125.00;4855762;29;20271;-74
2022/12/31 11:36:16;;;;;;;9.00;6.27;;;;;;;13.85;51.63;98114.41;4849961;29;20208;-74
2022/12/31 11:39:00;;;;;;;9.10;5.73;;;;;;;13.83;51.70;98120.59;4779340;30;20672;-74
2022/12/31 11:41:41;;;;;;;9.83;5.70;;;;;;;13.92;51.59;98116.75;4778518;30;20230;-75
2022/12/31 11:44:26;;;;;;;11.20;8.10;;;;;;;13.80;52.01;98110.31;4860564;29;20301;-73
2022/12/31 11:46:56;;;;;;;9.23;6.33;;;;;;;13.69;52.91;98117.72;4891288;29;20193;-74
2022/12/31 11:49:39;;;;;;;5.83;4.70;;;;;;;13.80;53.61;98115.53;4872393;29;20512;-74
2022/12/31 11:52:32;;;;;;;7.97;4.73;;;;;;;13.89;52.39;98115.97;4873033;29;20231;-75
2022/12/31 11:55:02;;;;;;;6.23;4.70;;;;;;;13.95;53.45;98114.88;4862339;29;20215;-74
2022/12/31 11:57:37;;;;;;;14.27;7.40;;;;;;;13.92;53.39;98093.31;4872579;29;20919;-73
2022/12/31 12:00:19;;;;;;;10.37;6.87;;;;;;;14.10;53.35;98115.97;4872683;29;20198;-73
2022/12/31 12:02:52;;;;;;;9.67;7.30;;;;;;;14.10;53.53;98100.34;4877368;29;20600;-73
2022/12/31 12:05:22;;;;;;;9.37;5.67;;;;;;;14.07;53.97;98103.09;4890016;29;20214;-72
2022/12/31 12:07:50;;;;;;;11.67;6.13;;;;;;;14.12;54.06;98104.59;4889178;29;20194;-72
2022/12/31 12:10:28;;;;;;;7.93;5.27;;;;;;;14.11;54.36;98100.31;4891562;29;20223;-73
2022/12/31 12:13:12;;;;;;;8.50;5.47;;;;;;;14.17;53.87;98100.03;4890298;29;20251;-72
2022/12/31 12:15:45;;;;;;;8.00;6.13;;;;;;;14.21;54.24;98101.59;4889313;29;20199;-73